Ooltewah, Tennessee
Current Conditions -  °F | °C
As of 3:53 PM on Sunday 23 Nov 2014 (Local Time) from KCHA Reporting Station
Light Rain Light Rain  
Wind Chill: 50°   Ceiling: 300
Heat Index: 50°   Visibility: 1mi
Dew Point: 49°   Wind: 6mph
Humidity: 96%   Direction: 30°NNE
Pressure: 29.63"   Gusts: NA
Location:  35.08°N, 85.06°W
Report Text: KCHA 232053Z 03005KT 1SM -RA BR BKN003 BKN010 OVC015 10/09 A2963 RMK AO2 SFC VIS 1 1/2 SLP030 P0007 60035 T01000094 56068
Loading
Personal Weather Stations






























Interactive Weather Map New forecast layout! Learn more

10-Day Weather Forecast

Advertisements
Track Severe Weather on mobile